Time;durP1;ratioP1;P1;durP2;ratioP2;P2;SDS_P1;SDS_P2;PMS_P1;PMS_P2;Temp;Humidity;BMP_temperature;BMP_pressure;BME280_temperature;BME280_humidity;BME280_pressure;Samples;Min_cycle;Max_cycle;Signal;HPM_P1;HPM_P2
2021/05/16 00:01:12;;;;;;;3.45;1.05;;;;;;;;;;4974976;28;20033;-84
2021/05/16 00:03:39;;;;;;;3.05;1.17;;;;;;;;;;4958753;28;20397;-84
2021/05/16 00:06:04;;;;;;;4.63;1.27;;;;;;;;;;4959215;28;20495;-83
2021/05/16 00:08:30;;;;;;;4.45;1.30;;;;;;;;;;4958680;28;20038;-84
2021/05/16 00:10:57;;;;;;;4.10;1.40;;;;;;;;;;4974813;28;20374;-84
2021/05/16 00:13:23;;;;;;;3.92;0.93;;;;;;;;;;4958491;28;20070;-83
2021/05/16 00:15:50;;;;;;;5.57;2.17;;;;;;;;;;4990766;28;20129;-84
2021/05/16 00:18:15;;;;;;;4.72;1.70;;;;;;;;;;4974761;28;20034;-84
2021/05/16 00:20:41;;;;;;;5.82;1.58;;;;;;;;;;4974888;28;20080;-83
2021/05/16 00:23:06;;;;;;;4.53;1.17;;;;;;;;;;4992330;28;20407;-84
2021/05/16 00:25:33;;;;;;;4.18;1.02;;;;;;;;;;4978070;28;20030;-84
2021/05/16 00:28:00;;;;;;;3.33;0.90;;;;;;;;;;4978133;28;20034;-83
2021/05/16 00:30:26;;;;;;;4.75;1.10;;;;;;;;;;4978125;28;20112;-84
2021/05/16 00:32:52;;;;;;;3.65;0.90;;;;;;;;;;4977843;28;20065;-83
2021/05/16 00:35:19;;;;;;;4.43;1.27;;;;;;;;;;4994187;28;20504;-84
2021/05/16 00:37:45;;;;;;;4.80;1.10;;;;;;;;;;4994180;28;20069;-84
2021/05/16 00:40:11;;;;;;;3.47;1.00;;;;;;;;;;4978120;28;20084;-83
2021/05/16 00:42:37;;;;;;;3.33;1.13;;;;;;;;;;5010004;28;20042;-84
2021/05/16 00:45:06;;;;;;;4.05;0.88;;;;;;;;;;4977907;28;20558;-84
2021/05/16 00:47:33;;;;;;;3.60;1.10;;;;;;;;;;4993347;28;20046;-84
2021/05/16 00:49:59;;;;;;;4.20;0.75;;;;;;;;;;4994061;28;20038;-84
2021/05/16 00:52:25;;;;;;;3.28;1.05;;;;;;;;;;4977666;28;20038;-83
2021/05/16 00:54:52;;;;;;;2.28;0.80;;;;;;;;;;4978150;28;20037;-83
2021/05/16 00:57:18;;;;;;;2.58;0.82;;;;;;;;;;5012991;28;20069;-84
2021/05/16 00:59:43;;;;;;;3.03;1.20;;;;;;;;;;4997537;28;20508;-84
2021/05/16 01:02:10;;;;;;;4.05;1.02;;;;;;;;;;4997151;28;20034;-84
2021/05/16 01:04:36;;;;;;;3.38;0.93;;;;;;;;;;4981474;28;20125;-84
2021/05/16 01:07:03;;;;;;;3.50;0.93;;;;;;;;;;4981617;28;20381;-84
2021/05/16 01:09:30;;;;;;;3.00;0.80;;;;;;;;;;4981445;28;20493;-84
2021/05/16 01:11:56;;;;;;;5.45;0.85;;;;;;;;;;4980883;28;20042;-85
2021/05/16 01:14:30;;;;;;;3.63;0.80;;;;;;;;;;4981226;28;20080;-84
2021/05/16 01:16:56;;;;;;;3.35;0.93;;;;;;;;;;4981706;28;20042;-84
2021/05/16 01:19:22;;;;;;;3.70;1.45;;;;;;;;;;4981205;28;20038;-84
2021/05/16 01:21:50;;;;;;;4.68;1.10;;;;;;;;;;4980873;28;20041;-84
2021/05/16 01:24:17;;;;;;;3.08;1.00;;;;;;;;;;4981648;28;20092;-84
2021/05/16 01:26:44;;;;;;;4.03;1.00;;;;;;;;;;4981024;28;20034;-84
2021/05/16 01:29:13;;;;;;;3.13;0.77;;;;;;;;;;4980763;28;20053;-84
2021/05/16 01:31:39;;;;;;;4.05;0.90;;;;;;;;;;4980766;28;20048;-85
2021/05/16 01:34:06;;;;;;;2.72;0.55;;;;;;;;;;4980983;28;20050;-83
2021/05/16 01:36:33;;;;;;;3.63;0.82;;;;;;;;;;4997063;28;20069;-84
2021/05/16 01:38:58;;;;;;;4.53;1.65;;;;;;;;;;4964700;28;20125;-84
2021/05/16 01:41:24;;;;;;;3.13;0.90;;;;;;;;;;4980939;28;20121;-84
2021/05/16 01:43:51;;;;;;;3.22;0.75;;;;;;;;;;4996390;28;20084;-84
2021/05/16 01:46:16;;;;;;;2.92;0.85;;;;;;;;;;4980139;28;20084;-84
2021/05/16 01:48:42;;;;;;;2.58;0.60;;;;;;;;;;4980591;28;20033;-84
2021/05/16 01:51:08;;;;;;;2.50;0.52;;;;;;;;;;4980947;28;20022;-84
2021/05/16 01:53:34;;;;;;;2.40;0.70;;;;;;;;;;4980658;28;20126;-85
2021/05/16 01:56:00;;;;;;;2.50;0.70;;;;;;;;;;4964293;28;20496;-84
2021/05/16 01:58:25;;;;;;;4.90;0.80;;;;;;;;;;5013004;28;20037;-85
2021/05/16 02:00:51;;;;;;;2.13;0.70;;;;;;;;;;4992901;28;20106;-83
2021/05/16 02:03:17;;;;;;;2.00;0.70;;;;;;;;;;4977218;28;20046;-84
2021/05/16 02:05:42;;;;;;;2.08;0.57;;;;;;;;;;4977236;28;20035;-84
2021/05/16 02:08:08;;;;;;;2.10;0.60;;;;;;;;;;4976145;28;20040;-84
2021/05/16 02:10:34;;;;;;;2.33;0.57;;;;;;;;;;4960641;28;20038;-84
2021/05/16 02:13:00;;;;;;;3.92;1.27;;;;;;;;;;4976652;28;20034;-84
2021/05/16 02:15:25;;;;;;;2.35;0.75;;;;;;;;;;4976447;28;20042;-84
2021/05/16 02:17:54;;;;;;;3.55;1.67;;;;;;;;;;4976902;28;20042;-84
2021/05/16 02:20:21;;;;;;;4.30;1.13;;;;;;;;;;4977131;28;20045;-84
2021/05/16 02:22:46;;;;;;;2.97;0.80;;;;;;;;;;4991706;28;20037;-84
2021/05/16 02:25:13;;;;;;;2.65;0.82;;;;;;;;;;4980003;28;20124;-84
2021/05/16 02:27:38;;;;;;;3.22;0.80;;;;;;;;;;4979771;28;20026;-84
2021/05/16 02:30:05;;;;;;;2.97;0.57;;;;;;;;;;4979668;28;20033;-84
2021/05/16 02:32:31;;;;;;;3.50;0.68;;;;;;;;;;4979895;28;20508;-84
2021/05/16 02:34:58;;;;;;;4.20;1.55;;;;;;;;;;4995901;28;20485;-85
2021/05/16 02:37:23;;;;;;;2.97;1.02;;;;;;;;;;5012546;28;20042;-85
2021/05/16 02:39:49;;;;;;;3.30;0.88;;;;;;;;;;4995779;28;20412;-85
2021/05/16 02:42:14;;;;;;;2.03;0.82;;;;;;;;;;4995314;28;20042;-84
2021/05/16 02:44:40;;;;;;;2.15;0.60;;;;;;;;;;4978853;28;20423;-84
2021/05/16 02:47:07;;;;;;;3.75;0.93;;;;;;;;;;4995653;28;20041;-85
2021/05/16 02:49:34;;;;;;;2.70;0.73;;;;;;;;;;4995735;28;20041;-85
2021/05/16 02:52:00;;;;;;;3.58;1.55;;;;;;;;;;5012191;28;20084;-85
2021/05/16 02:54:27;;;;;;;4.97;1.00;;;;;;;;;;5012255;28;20037;-84
2021/05/16 02:56:54;;;;;;;2.15;0.70;;;;;;;;;;4995530;28;20033;-86
2021/05/16 02:59:21;;;;;;;3.70;1.10;;;;;;;;;;4994952;28;20053;-85
2021/05/16 03:01:48;;;;;;;2.45;0.70;;;;;;;;;;4992133;28;20522;-85
2021/05/16 03:04:14;;;;;;;2.53;0.80;;;;;;;;;;4976204;28;20113;-85
2021/05/16 03:06:40;;;;;;;3.35;0.80;;;;;;;;;;4960143;28;20039;-84
2021/05/16 03:09:05;;;;;;;4.82;1.02;;;;;;;;;;4943969;28;20040;-85
2021/05/16 03:11:31;;;;;;;2.22;0.80;;;;;;;;;;4959673;28;20111;-85
2021/05/16 03:13:56;;;;;;;4.63;0.93;;;;;;;;;;4959257;28;20046;-85
2021/05/16 03:16:22;;;;;;;3.67;0.90;;;;;;;;;;4959612;28;20034;-84
2021/05/16 03:18:48;;;;;;;3.63;1.05;;;;;;;;;;4959511;28;20382;-84
2021/05/16 03:21:15;;;;;;;3.88;0.73;;;;;;;;;;4978381;28;20058;-84
2021/05/16 03:23:41;;;;;;;4.68;0.85;;;;;;;;;;4978710;28;20046;-85
2021/05/16 03:26:07;;;;;;;2.47;0.80;;;;;;;;;;4979076;28;20030;-85
2021/05/16 03:28:33;;;;;;;2.65;0.45;;;;;;;;;;4978616;28;20041;-85
2021/05/16 03:30:59;;;;;;;2.95;0.80;;;;;;;;;;4978874;28;20033;-84
2021/05/16 03:33:25;;;;;;;3.15;0.52;;;;;;;;;;4978929;28;20488;-84
2021/05/16 03:35:51;;;;;;;3.70;0.80;;;;;;;;;;4978666;28;20128;-84
2021/05/16 03:38:16;;;;;;;4.55;1.20;;;;;;;;;;4978923;28;20103;-85
2021/05/16 03:40:43;;;;;;;2.55;0.75;;;;;;;;;;4978182;28;20140;-85
2021/05/16 03:43:08;;;;;;;2.13;0.60;;;;;;;;;;4978220;28;20128;-85
2021/05/16 03:45:35;;;;;;;1.55;0.50;;;;;;;;;;4978450;28;20041;-85
2021/05/16 03:48:00;;;;;;;2.75;0.77;;;;;;;;;;4978630;28;20030;-84
2021/05/16 03:50:27;;;;;;;3.38;0.75;;;;;;;;;;4995136;28;20076;-84
2021/05/16 03:52:53;;;;;;;2.67;0.80;;;;;;;;;;4978585;28;20109;-85
2021/05/16 03:55:21;;;;;;;3.85;0.60;;;;;;;;;;4978691;28;20045;-86
2021/05/16 03:57:49;;;;;;;2.92;0.50;;;;;;;;;;4978656;28;20537;-86
2021/05/16 04:00:16;;;;;;;3.22;0.80;;;;;;;;;;4978799;28;20412;-86
2021/05/16 04:02:43;;;;;;;4.03;1.10;;;;;;;;;;4978610;28;20448;-85
2021/05/16 04:05:10;;;;;;;1.33;0.60;;;;;;;;;;4978451;28;20041;-85
2021/05/16 04:07:36;;;;;;;2.28;0.65;;;;;;;;;;4978553;28;20558;-85
2021/05/16 04:10:03;;;;;;;2.88;0.90;;;;;;;;;;4994551;28;20034;-85
2021/05/16 04:12:29;;;;;;;2.22;0.70;;;;;;;;;;4994112;28;20048;-85
2021/05/16 04:14:54;;;;;;;3.35;0.88;;;;;;;;;;4978453;28;20042;-86
2021/05/16 04:17:21;;;;;;;2.55;0.60;;;;;;;;;;4994319;28;20112;-86
2021/05/16 04:19:47;;;;;;;3.72;1.02;;;;;;;;;;4994622;28;20203;-85
2021/05/16 04:22:14;;;;;;;2.55;0.73;;;;;;;;;;4978483;28;20041;-86
2021/05/16 04:24:41;;;;;;;2.58;1.00;;;;;;;;;;4978349;28;20546;-87
2021/05/16 04:27:06;;;;;;;3.13;1.73;;;;;;;;;;4978800;28;20045;-87
2021/05/16 04:29:33;;;;;;;2.97;0.95;;;;;;;;;;4978317;28;20038;-86
2021/05/16 04:31:58;;;;;;;2.75;0.70;;;;;;;;;;4981044;28;20033;-86
2021/05/16 04:34:25;;;;;;;3.00;1.05;;;;;;;;;;4998521;28;20416;-87
2021/05/16 04:36:50;;;;;;;1.92;0.80;;;;;;;;;;4998562;28;20080;-86
2021/05/16 04:39:16;;;;;;;1.92;0.70;;;;;;;;;;5014183;28;20038;-85
2021/05/16 04:41:41;;;;;;;2.78;0.90;;;;;;;;;;4997662;28;20099;-85
2021/05/16 04:44:07;;;;;;;2.75;0.80;;;;;;;;;;5014484;28;20034;-85
2021/05/16 04:46:35;;;;;;;3.00;0.75;;;;;;;;;;4997911;28;20034;-85
2021/05/16 04:49:02;;;;;;;3.00;0.70;;;;;;;;;;5014516;28;20111;-86
2021/05/16 04:51:29;;;;;;;2.35;0.80;;;;;;;;;;4997793;28;20050;-85
2021/05/16 04:53:55;;;;;;;3.35;1.08;;;;;;;;;;4997545;28;20041;-86
2021/05/16 04:56:21;;;;;;;2.58;0.70;;;;;;;;;;4997956;28;20034;-86
2021/05/16 04:58:47;;;;;;;4.20;0.88;;;;;;;;;;5014114;28;20081;-86
2021/05/16 05:01:13;;;;;;;2.38;0.60;;;;;;;;;;4994685;28;20085;-86
2021/05/16 05:03:39;;;;;;;2.30;0.65;;;;;;;;;;4962339;28;20121;-85
2021/05/16 05:06:04;;;;;;;3.15;1.08;;;;;;;;;;4962374;28;20046;-85
2021/05/16 05:08:31;;;;;;;2.75;0.80;;;;;;;;;;4977807;28;20035;-86
2021/05/16 05:10:57;;;;;;;1.98;0.35;;;;;;;;;;4946251;28;20027;-85
2021/05/16 05:13:22;;;;;;;3.08;0.90;;;;;;;;;;4961639;28;20034;-85
2021/05/16 05:15:49;;;;;;;4.18;1.33;;;;;;;;;;4961936;28;20153;-85
2021/05/16 05:18:17;;;;;;;3.35;1.00;;;;;;;;;;4978111;28;20026;-84
2021/05/16 05:20:45;;;;;;;2.80;0.43;;;;;;;;;;4946434;28;20041;-85
2021/05/16 05:23:11;;;;;;;3.38;0.90;;;;;;;;;;4976056;28;20034;-84
2021/05/16 05:25:36;;;;;;;3.17;0.90;;;;;;;;;;4961508;28;20117;-84
2021/05/16 05:28:02;;;;;;;3.38;0.70;;;;;;;;;;4977473;28;20104;-84
2021/05/16 05:30:28;;;;;;;2.30;0.73;;;;;;;;;;4978169;28;20096;-84
2021/05/16 05:32:54;;;;;;;3.03;1.02;;;;;;;;;;4989949;28;20041;-84
2021/05/16 05:35:19;;;;;;;2.70;0.90;;;;;;;;;;5013305;28;20463;-84
2021/05/16 05:37:45;;;;;;;2.35;0.60;;;;;;;;;;4980446;28;20038;-83
2021/05/16 05:40:11;;;;;;;2.88;0.63;;;;;;;;;;4996638;28;20041;-84
2021/05/16 05:42:36;;;;;;;1.67;0.50;;;;;;;;;;4994796;28;20034;-84
2021/05/16 05:45:06;;;;;;;2.90;0.55;;;;;;;;;;5013184;28;20037;-84
2021/05/16 05:47:32;;;;;;;1.52;0.50;;;;;;;;;;4996089;28;20120;-83
2021/05/16 05:49:58;;;;;;;5.85;1.10;;;;;;;;;;4996784;28;20038;-84
2021/05/16 05:52:23;;;;;;;3.45;0.80;;;;;;;;;;4979917;28;20033;-84
2021/05/16 05:54:49;;;;;;;2.17;0.68;;;;;;;;;;5013196;28;20069;-83
2021/05/16 05:57:14;;;;;;;3.05;0.50;;;;;;;;;;4996364;28;20042;-83
2021/05/16 05:59:40;;;;;;;3.83;0.90;;;;;;;;;;4996670;28;20033;-83
2021/05/16 06:02:05;;;;;;;2.28;0.60;;;;;;;;;;5009231;28;20394;-83
2021/05/16 06:04:31;;;;;;;3.03;0.47;;;;;;;;;;4976990;28;20412;-83
2021/05/16 06:06:56;;;;;;;3.17;0.65;;;;;;;;;;4976805;28;20057;-83
2021/05/16 06:09:22;;;;;;;2.42;0.45;;;;;;;;;;4976996;28;20397;-83
2021/05/16 06:11:47;;;;;;;2.15;0.60;;;;;;;;;;4992482;28;20042;-82
2021/05/16 06:14:13;;;;;;;1.92;0.70;;;;;;;;;;4976457;28;20065;-82
2021/05/16 06:16:38;;;;;;;2.80;0.80;;;;;;;;;;4976677;28;20432;-83
2021/05/16 06:19:03;;;;;;;2.63;0.60;;;;;;;;;;4992800;28;20038;-82
2021/05/16 06:21:29;;;;;;;2.00;0.55;;;;;;;;;;4980833;28;20060;-82
2021/05/16 06:24:09;;;;;;;2.05;0.38;;;;;;;;;;4980260;28;20125;-82
2021/05/16 06:26:37;;;;;;;2.13;0.40;;;;;;;;;;4984027;28;20046;-82
2021/05/16 06:29:05;;;;;;;2.30;0.60;;;;;;;;;;4979552;28;20041;-81
2021/05/16 06:31:31;;;;;;;4.35;1.00;;;;;;;;;;4979749;28;20037;-81
2021/05/16 06:33:56;;;;;;;3.03;0.73;;;;;;;;;;5012182;28;20042;-82
2021/05/16 06:36:22;;;;;;;1.85;1.02;;;;;;;;;;5012120;28;20038;-82
2021/05/16 06:38:48;;;;;;;2.53;0.60;;;;;;;;;;5012220;28;20492;-82
2021/05/16 06:41:13;;;;;;;3.63;0.68;;;;;;;;;;5012036;28;20030;-82
2021/05/16 06:43:39;;;;;;;2.33;0.70;;;;;;;;;;5011715;28;20501;-82
2021/05/16 06:46:04;;;;;;;3.85;0.73;;;;;;;;;;4995237;28;20038;-81
2021/05/16 06:48:30;;;;;;;2.78;0.95;;;;;;;;;;4992946;28;20053;-80
2021/05/16 06:50:55;;;;;;;6.05;1.02;;;;;;;;;;4993000;28;20046;-81
2021/05/16 06:53:21;;;;;;;1.95;0.60;;;;;;;;;;5010492;28;20037;-79
2021/05/16 06:55:46;;;;;;;3.33;0.90;;;;;;;;;;5011038;28;20104;-79
2021/05/16 06:58:12;;;;;;;4.00;0.90;;;;;;;;;;5011671;28;20048;-79
2021/05/16 07:00:37;;;;;;;3.55;0.80;;;;;;;;;;5011335;28;20475;-79
2021/05/16 07:03:03;;;;;;;5.82;0.98;;;;;;;;;;5011430;28;20381;-79
2021/05/16 07:05:28;;;;;;;4.93;1.02;;;;;;;;;;4995309;28;20424;-79
2021/05/16 07:07:54;;;;;;;6.35;1.00;;;;;;;;;;5011362;28;20046;-79
2021/05/16 07:10:19;;;;;;;5.63;1.10;;;;;;;;;;5011615;28;20416;-79
2021/05/16 07:12:45;;;;;;;5.60;1.08;;;;;;;;;;5010378;28;20038;-79
2021/05/16 07:15:12;;;;;;;5.88;1.52;;;;;;;;;;4994980;28;20488;-78
2021/05/16 07:17:37;;;;;;;5.35;1.30;;;;;;;;;;4988889;28;20052;-80
2021/05/16 07:20:03;;;;;;;6.03;1.30;;;;;;;;;;5010781;28;20435;-80
2021/05/16 07:22:29;;;;;;;6.35;1.40;;;;;;;;;;4994655;28;20046;-79
2021/05/16 07:24:54;;;;;;;6.68;1.98;;;;;;;;;;4978780;28;20496;-79
2021/05/16 07:27:20;;;;;;;6.05;1.60;;;;;;;;;;4994323;28;20033;-79
2021/05/16 07:29:45;;;;;;;6.75;1.70;;;;;;;;;;4994837;28;20034;-79
2021/05/16 07:32:10;;;;;;;7.97;1.65;;;;;;;;;;4994165;28;20050;-79
2021/05/16 07:34:36;;;;;;;4.60;1.27;;;;;;;;;;5027138;28;20176;-79
2021/05/16 07:37:01;;;;;;;7.05;2.22;;;;;;;;;;5011024;28;20112;-79
2021/05/16 07:39:27;;;;;;;3.55;1.30;;;;;;;;;;5010909;28;20046;-80
2021/05/16 07:41:52;;;;;;;3.65;1.10;;;;;;;;;;5009843;28;20431;-79
2021/05/16 07:44:17;;;;;;;4.57;1.40;;;;;;;;;;4994131;28;20451;-79
2021/05/16 07:46:43;;;;;;;5.13;1.40;;;;;;;;;;5010331;28;20029;-79
2021/05/16 07:49:08;;;;;;;6.13;1.95;;;;;;;;;;5010540;28;20393;-78
2021/05/16 07:51:34;;;;;;;3.85;1.13;;;;;;;;;;4993923;28;20738;-79
2021/05/16 07:53:59;;;;;;;4.38;1.90;;;;;;;;;;4978118;28;20049;-79
2021/05/16 07:56:25;;;;;;;5.28;2.00;;;;;;;;;;4978118;28;20046;-79
2021/05/16 07:58:50;;;;;;;4.70;1.65;;;;;;;;;;4978376;28;20120;-79
2021/05/16 08:01:16;;;;;;;4.68;0.95;;;;;;;;;;4994375;28;20450;-79
2021/05/16 08:03:41;;;;;;;5.60;1.40;;;;;;;;;;4990562;28;20464;-79
2021/05/16 08:06:07;;;;;;;4.80;1.05;;;;;;;;;;4990474;28;20034;-79
2021/05/16 08:08:32;;;;;;;6.05;1.88;;;;;;;;;;4975065;28;20038;-80
2021/05/16 08:10:58;;;;;;;4.20;1.17;;;;;;;;;;4974687;28;20035;-79
2021/05/16 08:13:23;;;;;;;4.82;1.10;;;;;;;;;;4990726;28;20042;-78
2021/05/16 08:15:49;;;;;;;8.25;2.00;;;;;;;;;;4980571;28;20433;-78
2021/05/16 08:18:14;;;;;;;6.38;1.38;;;;;;;;;;5009419;28;20168;-79
2021/05/16 08:20:39;;;;;;;6.22;1.85;;;;;;;;;;4978012;28;20113;-79
2021/05/16 08:23:05;;;;;;;6.32;1.15;;;;;;;;;;4994502;28;20033;-79
2021/05/16 08:25:35;;;;;;;12.45;4.30;;;;;;;;;;5011244;28;20540;-79
2021/05/16 08:28:01;;;;;;;15.90;8.13;;;;;;;;;;4994848;28;20034;-79
2021/05/16 08:30:28;;;;;;;13.77;6.80;;;;;;;;;;5010395;28;20026;-79
2021/05/16 08:32:53;;;;;;;12.57;5.28;;;;;;;;;;4994233;28;20041;-79
2021/05/16 08:35:19;;;;;;;11.27;5.32;;;;;;;;;;5010322;28;20157;-79
2021/05/16 08:37:45;;;;;;;9.93;4.32;;;;;;;;;;5011524;28;20050;-79
2021/05/16 08:40:11;;;;;;;10.70;4.20;;;;;;;;;;5010176;28;20037;-79
2021/05/16 08:42:37;;;;;;;7.43;3.50;;;;;;;;;;4976946;28;20567;-80
2021/05/16 08:45:08;;;;;;;10.45;3.83;;;;;;;;;;5010265;28;20037;-79
2021/05/16 08:47:33;;;;;;;9.45;2.97;;;;;;;;;;4994199;28;20037;-80
2021/05/16 08:49:58;;;;;;;10.80;3.55;;;;;;;;;;4961243;28;20592;-79
2021/05/16 08:52:24;;;;;;;10.80;3.70;;;;;;;;;;5010094;28;20038;-79
2021/05/16 08:54:53;;;;;;;15.98;2.70;;;;;;;;;;5010562;28;20041;-80
2021/05/16 08:57:19;;;;;;;6.88;2.03;;;;;;;;;;4993699;28;20496;-78
2021/05/16 09:00:14;;;;;;;9.52;2.47;;;;;;;;;;4993125;28;20141;-79
2021/05/16 09:02:58;;;;;;;7.55;2.83;;;;;;;;;;4978620;28;20045;-79
2021/05/16 09:05:24;;;;;;;7.53;2.33;;;;;;;;;;5010159;28;20049;-79
2021/05/16 09:07:57;;;;;;;16.58;3.90;;;;;;;;;;4977955;28;20052;-78
2021/05/16 09:10:26;;;;;;;9.15;1.90;;;;;;;;;;4994921;28;20508;-78
2021/05/16 09:12:51;;;;;;;5.45;1.63;;;;;;;;;;4993206;28;20045;-78
2021/05/16 09:15:20;;;;;;;4.50;1.45;;;;;;;;;;5009622;28;20037;-81
2021/05/16 09:17:46;;;;;;;6.55;1.77;;;;;;;;;;4979233;28;20025;-79
2021/05/16 09:20:14;;;;;;;6.03;1.48;;;;;;;;;;5013228;28;20048;-80
2021/05/16 09:22:42;;;;;;;4.88;1.20;;;;;;;;;;4996774;28;20088;-79
2021/05/16 09:25:18;;;;;;;4.13;1.35;;;;;;;;;;4996974;28;20084;-78
2021/05/16 09:27:55;;;;;;;6.50;1.10;;;;;;;;;;4996911;28;20563;-80
2021/05/16 09:30:20;;;;;;;6.47;1.45;;;;;;;;;;4977355;28;20064;-80
2021/05/16 09:32:46;;;;;;;7.18;2.17;;;;;;;;;;4991544;28;20511;-79
2021/05/16 09:35:11;;;;;;;4.70;1.73;;;;;;;;;;5010740;28;20476;-79
2021/05/16 09:37:37;;;;;;;5.88;1.15;;;;;;;;;;4996924;28;20052;-79
2021/05/16 09:40:02;;;;;;;8.93;1.65;;;;;;;;;;4997024;28;20431;-78
2021/05/16 09:42:28;;;;;;;5.85;1.23;;;;;;;;;;4979297;28;20045;-79
2021/05/16 09:44:54;;;;;;;4.88;1.13;;;;;;;;;;4980316;28;20111;-79
2021/05/16 09:47:26;;;;;;;4.15;1.10;;;;;;;;;;4997026;28;20049;-79
2021/05/16 09:49:56;;;;;;;5.37;1.70;;;;;;;;;;4981358;28;20088;-79
2021/05/16 09:52:31;;;;;;;6.30;1.83;;;;;;;;;;4996597;28;20092;-78
2021/05/16 09:54:58;;;;;;;3.97;1.00;;;;;;;;;;5012984;28;20032;-78
2021/05/16 09:57:25;;;;;;;9.02;2.78;;;;;;;;;;4980071;28;20054;-78
2021/05/16 09:59:50;;;;;;;5.82;1.38;;;;;;;;;;4980502;28;20112;-79
2021/05/16 10:02:16;;;;;;;4.45;1.63;;;;;;;;;;4998124;28;20042;-79
2021/05/16 10:04:42;;;;;;;3.92;1.17;;;;;;;;;;4995171;28;20117;-79
2021/05/16 10:07:08;;;;;;;5.65;2.60;;;;;;;;;;4979236;28;20103;-80
2021/05/16 10:09:34;;;;;;;5.28;1.45;;;;;;;;;;4979084;28;20038;-80
2021/05/16 10:11:59;;;;;;;5.55;1.98;;;;;;;;;;5010666;28;20041;-79
2021/05/16 10:14:26;;;;;;;5.18;1.50;;;;;;;;;;4995114;28;20087;-79
2021/05/16 10:16:52;;;;;;;3.47;1.00;;;;;;;;;;4979004;28;20046;-80
2021/05/16 10:19:25;;;;;;;4.00;1.42;;;;;;;;;;4979012;28;20030;-80
2021/05/16 10:22:14;;;;;;;3.35;0.80;;;;;;;;;;4994709;28;20463;-80
2021/05/16 10:24:44;;;;;;;4.63;1.30;;;;;;;;;;5012856;28;20428;-79
2021/05/16 10:27:30;;;;;;;3.78;1.05;;;;;;;;;;4995513;28;20080;-79
2021/05/16 10:30:00;;;;;;;5.75;1.23;;;;;;;;;;4994963;28;20034;-79
2021/05/16 10:32:32;;;;;;;3.58;0.82;;;;;;;;;;4995679;28;20040;-79
2021/05/16 10:35:02;;;;;;;5.78;1.27;;;;;;;;;;4991350;28;20560;-79
2021/05/16 10:37:47;;;;;;;4.10;1.00;;;;;;;;;;4980384;28;20049;-79
2021/05/16 10:40:28;;;;;;;3.45;1.00;;;;;;;;;;5011768;28;20038;-79
2021/05/16 10:42:57;;;;;;;3.53;0.90;;;;;;;;;;4979704;28;20033;-79
2021/05/16 10:45:23;;;;;;;4.55;1.40;;;;;;;;;;4995529;28;20534;-79
2021/05/16 10:47:53;;;;;;;3.97;0.90;;;;;;;;;;4995397;28;20077;-78
2021/05/16 10:50:18;;;;;;;4.93;1.20;;;;;;;;;;4995283;28;20030;-79
2021/05/16 10:53:01;;;;;;;3.60;1.00;;;;;;;;;;5027992;28;20034;-79
2021/05/16 10:55:30;;;;;;;3.83;0.95;;;;;;;;;;4996269;28;20045;-79
2021/05/16 10:57:56;;;;;;;2.88;1.13;;;;;;;;;;4995383;28;20111;-79
2021/05/16 11:00:22;;;;;;;3.92;0.82;;;;;;;;;;4979111;28;20492;-80
2021/05/16 11:03:00;;;;;;;2.30;0.85;;;;;;;;;;5010784;28;20079;-79
2021/05/16 11:05:47;;;;;;;4.55;0.90;;;;;;;;;;5008290;28;20126;-79
2021/05/16 11:08:16;;;;;;;6.78;1.13;;;;;;;;;;4992401;28;20393;-78
2021/05/16 11:10:48;;;;;;;3.30;1.00;;;;;;;;;;4994036;28;20040;-79
2021/05/16 11:13:14;;;;;;;;;;;;;;;;;;4979789;28;20132;-79
2021/05/16 11:15:50;;;;;;;8.52;1.27;;;;;;;;;;5011395;28;19949;-80
2021/05/16 11:18:19;;;;;;;7.32;1.80;;;;;;;;;;4971575;28;20065;-80
2021/05/16 11:20:52;;;;;;;3.88;1.02;;;;;;;;;;5000500;28;20041;-81
2021/05/16 11:23:27;;;;;;;7.28;1.45;;;;;;;;;;5011107;28;20029;-80
2021/05/16 11:26:05;;;;;;;5.43;0.70;;;;;;;;;;4977989;28;20065;-81
2021/05/16 11:28:32;;;;;;;6.20;0.98;;;;;;;;;;4994889;28;20034;-82
2021/05/16 11:30:58;;;;;;;3.13;0.80;;;;;;;;;;4977075;28;20060;-84
2021/05/16 11:33:34;;;;;;;7.28;3.40;;;;;;;;;;4993534;28;20038;-85
2021/05/16 11:36:05;;;;;;;31.73;21.70;;;;;;;;;;4978448;28;20034;-83
2021/05/16 11:38:33;;;;;;;30.38;21.05;;;;;;;;;;4994393;28;20029;-82
2021/05/16 11:40:58;;;;;;;25.10;16.13;;;;;;;;;;4994104;28;20061;-82
2021/05/16 11:43:28;;;;;;;26.17;14.27;;;;;;;;;;4993912;28;20125;-81
2021/05/16 11:45:54;;;;;;;19.17;12.65;;;;;;;;;;4994283;28;20077;-81
2021/05/16 11:48:30;;;;;;;23.50;15.45;;;;;;;;;;4994211;28;20049;-82
2021/05/16 11:51:16;;;;;;;19.20;11.07;;;;;;;;;;5011635;28;20042;-81
2021/05/16 11:53:44;;;;;;;17.92;10.50;;;;;;;;;;5026310;28;20034;-81
2021/05/16 11:56:14;;;;;;;12.30;7.13;;;;;;;;;;5010070;28;20046;-80
2021/05/16 11:58:49;;;;;;;12.43;5.32;;;;;;;;;;4993762;28;20842;-80
2021/05/16 12:01:14;;;;;;;8.52;4.70;;;;;;;;;;4990587;28;20046;-80
2021/05/16 12:03:58;;;;;;;9.27;4.43;;;;;;;;;;4976456;28;20038;-79
2021/05/16 12:06:24;;;;;;;8.25;4.78;;;;;;;;;;4994173;28;20030;-79
2021/05/16 12:09:06;;;;;;;6.38;3.05;;;;;;;;;;4994083;28;20462;-79
2021/05/16 12:11:35;;;;;;;6.97;3.07;;;;;;;;;;5026459;28;20047;-80
2021/05/16 12:14:17;;;;;;;4.20;2.05;;;;;;;;;;5026533;28;20053;-79
2021/05/16 12:17:05;;;;;;;5.90;2.20;;;;;;;;;;5010089;28;20034;-79
2021/05/16 12:19:35;;;;;;;5.82;2.20;;;;;;;;;;5026641;28;20101;-78
2021/05/16 12:22:05;;;;;;;4.15;2.00;;;;;;;;;;4977941;28;20516;-79
2021/05/16 12:24:32;;;;;;;5.75;2.08;;;;;;;;;;4977868;28;20404;-78
2021/05/16 12:26:58;;;;;;;5.72;2.03;;;;;;;;;;4977961;28;20060;-78
2021/05/16 12:29:23;;;;;;;5.72;1.95;;;;;;;;;;4994130;28;20037;-79
2021/05/16 12:31:50;;;;;;;5.13;2.00;;;;;;;;;;4977406;28;20595;-78
2021/05/16 12:34:16;;;;;;;5.30;1.60;;;;;;;;;;4993852;28;20029;-78
2021/05/16 12:36:45;;;;;;;4.45;1.50;;;;;;;;;;4993922;28;20463;-78
2021/05/16 12:39:10;;;;;;;4.25;1.40;;;;;;;;;;4994217;28;20124;-78
2021/05/16 12:41:36;;;;;;;6.57;1.55;;;;;;;;;;4993015;28;20507;-78
2021/05/16 12:44:09;;;;;;;4.72;1.23;;;;;;;;;;4976328;28;20448;-78
2021/05/16 12:46:45;;;;;;;3.22;1.23;;;;;;;;;;4975086;28;20041;-78
2021/05/16 12:49:11;;;;;;;2.25;1.00;;;;;;;;;;4991657;28;20161;-77
2021/05/16 12:51:38;;;;;;;3.75;1.40;;;;;;;;;;4974596;28;20035;-78
2021/05/16 12:54:20;;;;;;;2.30;0.90;;;;;;;;;;4994149;28;20038;-78
2021/05/16 12:56:51;;;;;;;;;;;;;;;;;;4994074;28;20516;-79
2021/05/16 12:59:28;;;;;;;3.90;1.15;;;;;;;;;;5010298;28;20012;-77
2021/05/16 13:02:08;;;;;;;3.78;1.42;;;;;;;;;;4991195;28;20038;-77
2021/05/16 13:04:47;;;;;;;5.20;1.17;;;;;;;;;;5013682;28;20451;-80
2021/05/16 13:07:12;;;;;;;5.78;1.73;;;;;;;;;;4980830;28;20041;-79
2021/05/16 13:09:38;;;;;;;3.25;1.23;;;;;;;;;;5011757;28;20499;-78
2021/05/16 13:12:03;;;;;;;3.05;0.80;;;;;;;;;;5012029;28;20042;-79
2021/05/16 13:14:29;;;;;;;5.38;1.00;;;;;;;;;;4980471;28;20037;-79
2021/05/16 13:17:18;;;;;;;3.92;1.15;;;;;;;;;;5014599;28;20091;-78
2021/05/16 13:19:51;;;;;;;2.28;0.70;;;;;;;;;;4998070;28;20038;-78
2021/05/16 13:22:36;;;;;;;3.07;0.97;;;;;;;;;;4979877;28;20042;-78
2021/05/16 13:25:06;;;;;;;3.08;0.80;;;;;;;;;;4981597;28;20038;-78
2021/05/16 13:27:31;;;;;;;2.40;0.70;;;;;;;;;;4996933;28;20436;-78
2021/05/16 13:30:00;;;;;;;3.78;0.85;;;;;;;;;;5013268;28;20105;-77
2021/05/16 13:32:26;;;;;;;2.50;0.75;;;;;;;;;;4997203;28;20046;-78
2021/05/16 13:34:51;;;;;;;3.78;0.80;;;;;;;;;;4995867;28;20052;-78
2021/05/16 13:37:17;;;;;;;4.03;0.82;;;;;;;;;;4996247;28;20124;-78
2021/05/16 13:39:42;;;;;;;2.53;0.50;;;;;;;;;;4993519;28;20038;-78
2021/05/16 13:42:08;;;;;;;1.58;0.57;;;;;;;;;;5010471;28;20037;-78
2021/05/16 13:44:34;;;;;;;3.05;0.63;;;;;;;;;;5012644;28;20037;-78
2021/05/16 13:46:59;;;;;;;4.50;1.30;;;;;;;;;;4996559;28;20036;-78
2021/05/16 13:49:25;;;;;;;1.98;0.75;;;;;;;;;;5012791;28;20038;-77
2021/05/16 13:51:51;;;;;;;2.88;0.52;;;;;;;;;;5012616;28;20496;-77
2021/05/16 13:54:16;;;;;;;1.58;0.50;;;;;;;;;;4996315;28;20064;-77
2021/05/16 13:56:42;;;;;;;3.10;0.70;;;;;;;;;;4995877;28;20412;-77
2021/05/16 13:59:10;;;;;;;1.70;0.30;;;;;;;;;;5012274;28;20042;-78
2021/05/16 14:01:36;;;;;;;2.38;0.35;;;;;;;;;;4996550;28;20412;-78
2021/05/16 14:04:02;;;;;;;1.67;0.45;;;;;;;;;;5011277;28;20064;-78
2021/05/16 14:06:27;;;;;;;3.10;0.60;;;;;;;;;;4995904;28;20540;-78
2021/05/16 14:08:53;;;;;;;2.42;0.52;;;;;;;;;;4995988;28;20492;-79
2021/05/16 14:11:18;;;;;;;1.52;0.40;;;;;;;;;;4996053;28;20033;-78
2021/05/16 14:13:43;;;;;;;1.10;0.30;;;;;;;;;;4995518;28;20455;-78
2021/05/16 14:16:09;;;;;;;2.70;0.40;;;;;;;;;;4995597;28;20393;-78
2021/05/16 14:18:34;;;;;;;0.82;0.20;;;;;;;;;;4995807;28;20045;-78
2021/05/16 14:21:00;;;;;;;1.40;0.30;;;;;;;;;;4995659;28;20420;-78
2021/05/16 14:23:25;;;;;;;0.98;0.30;;;;;;;;;;4996078;28;20088;-78
2021/05/16 14:25:51;;;;;;;1.80;0.30;;;;;;;;;;4979654;28;20060;-77
2021/05/16 14:28:16;;;;;;;1.50;0.40;;;;;;;;;;4976406;28;20165;-78
2021/05/16 14:30:45;;;;;;;1.42;0.30;;;;;;;;;;4993215;28;20027;-78
2021/05/16 14:33:11;;;;;;;1.55;0.40;;;;;;;;;;5011528;28;20046;-78
2021/05/16 14:35:37;;;;;;;2.63;0.45;;;;;;;;;;4996267;28;20038;-78
2021/05/16 14:38:02;;;;;;;3.35;0.50;;;;;;;;;;5012131;28;20495;-78
2021/05/16 14:40:27;;;;;;;1.50;0.40;;;;;;;;;;4995002;28;20061;-79
2021/05/16 14:42:53;;;;;;;0.90;0.20;;;;;;;;;;5011709;28;20552;-77
2021/05/16 14:45:18;;;;;;;1.20;0.20;;;;;;;;;;4995417;28;20077;-78